createdAt,value
2019-05-12T00:00:44.721Z,8.08
2019-05-12T00:03:13.815Z,8.02
2019-05-12T00:05:43.134Z,8.01
2019-05-12T00:08:12.252Z,7.99
2019-05-12T00:10:41.499Z,7.98
2019-05-12T00:13:10.609Z,7.97
2019-05-12T00:15:39.744Z,7.97
2019-05-12T00:18:09.381Z,7.98
2019-05-12T00:20:38.840Z,7.97
2019-05-12T00:23:23.322Z,7.91
2019-05-12T00:25:38.957Z,7.88
2019-05-12T00:28:08.071Z,7.88
2019-05-12T00:30:48.708Z,7.86
2019-05-12T00:33:18.180Z,5.67
2019-05-12T00:35:48.599Z,7.85
2019-05-12T00:38:17.839Z,7.84
2019-05-12T00:40:47.877Z,7.80
2019-05-12T00:43:18.854Z,7.81
2019-05-12T00:45:48.348Z,7.81
2019-05-12T00:48:17.964Z,7.80
2019-05-12T00:50:48.608Z,7.77
2019-05-12T00:53:18.845Z,7.74
2019-05-12T00:55:48.167Z,7.71
2019-05-12T00:58:19.616Z,7.70
2019-05-12T01:00:59.455Z,7.69
2019-05-12T01:03:28.011Z,7.69
2019-05-12T01:05:57.755Z,7.68
2019-05-12T01:08:28.019Z,7.67
2019-05-12T01:10:58.271Z,7.66
2019-05-12T01:13:28.072Z,7.66
2019-05-12T01:15:58.710Z,7.64
2019-05-12T01:18:28.139Z,7.61
2019-05-12T01:20:58.378Z,7.58
2019-05-12T01:23:28.248Z,7.57
2019-05-12T01:25:58.484Z,5.64
2019-05-12T01:28:28.019Z,7.50
2019-05-12T01:30:58.786Z,7.47
2019-05-12T01:33:28.035Z,7.47
2019-05-12T01:35:58.625Z,7.48
2019-05-12T01:38:28.793Z,7.46
2019-05-12T01:40:58.515Z,7.45
2019-05-12T01:43:29.008Z,7.43
2019-05-12T01:45:58.915Z,7.41
2019-05-12T01:48:28.698Z,7.38
2019-05-12T01:50:58.102Z,7.38
2019-05-12T01:53:28.689Z,7.40
2019-05-12T01:55:58.543Z,7.41
2019-05-12T01:58:27.956Z,7.38
2019-05-12T02:00:58.847Z,7.34
2019-05-12T02:03:28.466Z,7.32
2019-05-12T02:05:58.796Z,7.30
2019-05-12T02:08:33.924Z,7.30
2019-05-12T02:11:21.050Z,7.26
2019-05-12T02:13:50.234Z,7.22
2019-05-12T02:16:19.354Z,7.16
2019-05-12T02:18:49.156Z,7.16
2019-05-12T02:21:19.046Z,7.17
2019-05-12T02:23:48.410Z,7.14
2019-05-12T02:26:18.938Z,7.13
2019-05-12T02:28:48.210Z,7.10
2019-05-12T02:31:20.597Z,7.09
2019-05-12T02:33:48.234Z,7.11
2019-05-12T02:36:17.403Z,7.12
2019-05-12T02:38:46.538Z,7.13
2019-05-12T02:41:15.842Z,7.11
2019-05-12T02:43:45.896Z,7.07
2019-05-12T02:46:15.839Z,7.04
2019-05-12T02:48:45.221Z,7.01
2019-05-12T02:51:15.660Z,6.99
2019-05-12T02:53:47.062Z,6.98
2019-05-12T02:56:17.674Z,6.98
2019-05-12T02:58:49.116Z,6.93
2019-05-12T03:01:19.967Z,6.89
2019-05-12T03:03:54.692Z,6.85
2019-05-12T03:06:25.218Z,6.84
2019-05-12T03:08:57.330Z,6.85
2019-05-12T03:11:28.703Z,6.83
2019-05-12T03:13:57.930Z,5.42
2019-05-12T03:16:27.049Z,6.72
2019-05-12T03:18:56.282Z,6.70
2019-05-12T03:21:25.401Z,6.71
2019-05-12T03:23:55.249Z,6.71
2019-05-12T03:26:24.977Z,6.70
2019-05-12T03:28:55.576Z,6.70
2019-05-12T03:31:30.985Z,6.71
2019-05-12T03:34:00.014Z,6.69
2019-05-12T03:36:33.120Z,6.68
2019-05-12T03:38:57.529Z,6.66
2019-05-12T03:41:26.850Z,6.64
2019-05-12T03:43:55.997Z,6.60
2019-05-12T03:46:25.144Z,6.52
2019-05-12T03:48:55.334Z,6.50
2019-05-12T03:51:25.335Z,6.46
2019-05-12T03:53:55.700Z,6.43
2019-05-12T03:56:26.173Z,6.35
2019-05-12T03:58:55.488Z,6.31
2019-05-12T04:01:25.818Z,6.27
2019-05-12T04:03:55.189Z,6.24
2019-05-12T04:06:24.874Z,6.19
2019-05-12T04:08:56.025Z,6.19
2019-05-12T04:11:25.270Z,6.22
2019-05-12T04:13:55.186Z,6.25
2019-05-12T04:16:24.988Z,6.25
2019-05-12T04:18:55.185Z,6.23
2019-05-12T04:21:24.766Z,6.21
2019-05-12T04:23:54.757Z,6.18
2019-05-12T04:26:25.332Z,6.17
2019-05-12T04:28:55.007Z,6.21
2019-05-12T04:31:25.027Z,6.21
2019-05-12T04:33:54.942Z,6.20
2019-05-12T04:36:24.940Z,6.17
2019-05-12T04:38:55.599Z,6.18
2019-05-12T04:41:26.179Z,6.20
2019-05-12T04:43:55.493Z,6.27
2019-05-12T04:46:25.407Z,6.32
2019-05-12T04:48:54.858Z,6.43
2019-05-12T04:51:25.968Z,6.51
2019-05-12T04:53:55.082Z,6.59
2019-05-12T04:56:25.140Z,6.67
2019-05-12T04:58:54.811Z,6.74
2019-05-12T05:01:25.437Z,6.81
2019-05-12T05:03:54.782Z,6.90
2019-05-12T05:06:25.429Z,6.97
2019-05-12T05:08:54.831Z,7.04
2019-05-12T05:11:25.001Z,7.10
2019-05-12T05:13:55.031Z,7.14
2019-05-12T05:16:24.978Z,7.21
2019-05-12T05:18:54.385Z,7.25
2019-05-12T05:21:24.143Z,7.30
2019-05-12T05:23:53.741Z,7.36
2019-05-12T05:26:27.850Z,7.41
2019-05-12T05:28:54.343Z,7.46
2019-05-12T05:31:24.318Z,7.55
2019-05-12T05:33:53.795Z,7.61
2019-05-12T05:36:25.016Z,7.67
2019-05-12T05:38:57.344Z,7.75
2019-05-12T05:41:24.780Z,7.84
2019-05-12T05:43:58.347Z,7.94
2019-05-12T05:46:25.233Z,8.04
2019-05-12T05:48:54.346Z,8.12
2019-05-12T05:51:23.889Z,8.15
2019-05-12T05:53:54.476Z,8.22
2019-05-12T05:56:38.347Z,8.27
2019-05-12T05:58:54.732Z,8.38
2019-05-12T06:01:24.687Z,8.50
2019-05-12T06:03:58.294Z,8.63
2019-05-12T06:06:24.938Z,8.70
2019-05-12T06:08:58.246Z,8.77
2019-05-12T06:11:28.546Z,8.84
2019-05-12T06:14:03.194Z,8.92
2019-05-12T06:16:28.750Z,9.02
2019-05-12T06:18:57.884Z,9.14
2019-05-12T06:21:29.015Z,9.25
2019-05-12T06:23:57.829Z,9.33
2019-05-12T06:26:32.471Z,9.41
2019-05-12T06:28:57.958Z,9.53
2019-05-12T06:31:29.818Z,9.61
2019-05-12T06:33:57.982Z,9.72
2019-05-12T06:36:27.482Z,9.85
2019-05-12T06:38:56.630Z,10.02
2019-05-12T06:41:25.997Z,10.05
2019-05-12T06:43:55.264Z,10.04
2019-05-12T06:46:25.894Z,9.97
2019-05-12T06:48:55.156Z,10.00
2019-05-12T06:51:25.902Z,10.02
2019-05-12T06:53:55.536Z,10.03
2019-05-12T06:56:25.142Z,10.05
2019-05-12T06:58:54.293Z,10.07
2019-05-12T07:01:24.180Z,10.20
2019-05-12T07:03:53.580Z,10.32
2019-05-12T07:06:24.701Z,10.35
2019-05-12T07:09:05.344Z,10.37
2019-05-12T07:11:25.124Z,10.37
2019-05-12T07:14:02.100Z,10.31
2019-05-12T07:16:30.018Z,10.32
2019-05-12T07:18:56.754Z,10.41
2019-05-12T07:21:27.328Z,10.51
2019-05-12T07:24:00.446Z,10.49
2019-05-12T07:26:27.625Z,10.52
2019-05-12T07:28:56.894Z,10.53
2019-05-12T07:31:26.451Z,10.59
2019-05-12T07:33:55.749Z,10.72
2019-05-12T07:36:25.378Z,10.86
2019-05-12T07:39:04.154Z,10.96
2019-05-12T07:41:29.263Z,11.04
2019-05-12T07:44:01.018Z,11.12
2019-05-12T07:46:31.433Z,11.55
2019-05-12T07:49:00.555Z,12.26
2019-05-12T07:51:30.493Z,13.42
2019-05-12T07:54:04.116Z,14.09
2019-05-12T07:56:35.880Z,13.97
2019-05-12T07:59:04.645Z,14.27
2019-05-12T08:01:35.824Z,14.19
2019-05-12T08:04:04.759Z,14.14
2019-05-12T08:06:41.783Z,14.28
2019-05-12T08:09:09.086Z,14.40
2019-05-12T08:11:39.112Z,14.30
2019-05-12T08:14:13.664Z,14.19
2019-05-12T08:16:39.363Z,13.82
2019-05-12T08:19:08.811Z,13.68
2019-05-12T08:21:43.772Z,13.52
2019-05-12T08:24:10.473Z,13.50
2019-05-12T08:26:39.624Z,13.60
2019-05-12T08:29:10.405Z,13.89
2019-05-12T08:31:40.857Z,14.04
2019-05-12T08:34:10.018Z,14.28
2019-05-12T08:36:39.187Z,14.57
2019-05-12T08:39:17.427Z,14.89
2019-05-12T08:41:39.745Z,14.86
2019-05-12T08:44:08.883Z,14.68
2019-05-12T08:46:43.237Z,14.41
2019-05-12T08:49:08.933Z,14.29
2019-05-12T08:51:38.523Z,14.77
2019-05-12T08:54:08.280Z,15.12
2019-05-12T08:56:37.520Z,15.33
2019-05-12T08:59:09.694Z,14.89
2019-05-12T09:01:37.643Z,14.70
2019-05-12T09:04:13.144Z,14.49
2019-05-12T09:06:38.015Z,14.36
2019-05-12T09:09:08.205Z,14.36
2019-05-12T09:11:37.394Z,14.29
2019-05-12T09:14:06.504Z,14.07
2019-05-12T09:16:35.711Z,13.67
2019-05-12T09:19:05.110Z,13.88
2019-05-12T09:21:37.139Z,13.97
2019-05-12T09:24:06.346Z,14.39
2019-05-12T09:26:35.480Z,14.79
2019-05-12T09:29:07.333Z,14.64
2019-05-12T09:31:35.583Z,14.65
2019-05-12T09:34:11.492Z,13.83
2019-05-12T09:36:35.818Z,14.54
2019-05-12T09:39:07.694Z,14.52
2019-05-12T09:41:42.351Z,14.41
2019-05-12T09:44:07.714Z,14.47
2019-05-12T09:46:37.741Z,14.96
2019-05-12T09:49:07.026Z,15.25
2019-05-12T09:51:41.492Z,15.55
2019-05-12T09:54:07.042Z,15.50
2019-05-12T09:56:36.159Z,14.93
2019-05-12T09:59:17.141Z,14.82
2019-05-12T10:01:39.475Z,14.92
2019-05-12T10:04:10.453Z,14.72
2019-05-12T10:06:37.840Z,14.73
2019-05-12T10:09:08.826Z,14.92
2019-05-12T10:11:38.146Z,14.69
2019-05-12T10:14:10.732Z,14.98
2019-05-12T10:16:39.459Z,14.86
2019-05-12T10:19:09.070Z,15.11
2019-05-12T10:21:38.228Z,15.06
2019-05-12T10:24:07.300Z,15.16
2019-05-12T10:26:41.205Z,15.20
2019-05-12T10:29:17.446Z,15.21
2019-05-12T10:31:39.334Z,14.95
2019-05-12T10:34:20.575Z,15.28
2019-05-12T10:36:50.434Z,15.43
2019-05-12T10:39:19.750Z,15.71
2019-05-12T10:41:48.926Z,15.73
2019-05-12T10:44:18.183Z,15.52
2019-05-12T10:46:50.273Z,15.44
2019-05-12T10:49:19.430Z,15.49
2019-05-12T10:51:48.588Z,15.33
2019-05-12T10:54:17.791Z,15.10
2019-05-12T10:56:46.973Z,14.94
2019-05-12T10:59:28.866Z,15.23
2019-05-12T11:01:48.991Z,15.52
2019-05-12T11:04:25.142Z,15.64
2019-05-12T11:06:48.657Z,15.85
2019-05-12T11:09:21.359Z,16.06
2019-05-12T11:11:48.611Z,16.38
2019-05-12T11:14:20.184Z,16.23
2019-05-12T11:16:48.629Z,16.05
2019-05-12T11:19:17.763Z,16.11
2019-05-12T11:21:46.891Z,16.05
2019-05-12T11:24:16.049Z,16.03
2019-05-12T11:26:45.183Z,16.31
2019-05-12T11:29:14.343Z,16.65
2019-05-12T11:31:44.140Z,16.83
2019-05-12T11:34:13.428Z,16.87
2019-05-12T11:36:43.830Z,16.76
2019-05-12T11:39:14.257Z,16.56
2019-05-12T11:41:44.238Z,16.44
2019-05-12T11:44:13.717Z,16.56
2019-05-12T11:46:44.209Z,16.65
2019-05-12T11:49:13.928Z,16.39
2019-05-12T11:51:43.157Z,16.48
2019-05-12T11:54:13.684Z,16.59
2019-05-12T11:56:46.470Z,16.76
2019-05-12T11:59:14.608Z,16.82
2019-05-12T12:01:48.051Z,17.08
2019-05-12T12:04:15.265Z,17.23
2019-05-12T12:06:44.566Z,17.30
2019-05-12T12:09:17.062Z,17.55
2019-05-12T12:11:44.525Z,17.42
2019-05-12T12:14:14.263Z,17.47
2019-05-12T12:16:49.924Z,17.54
2019-05-12T12:19:14.595Z,17.60
2019-05-12T12:21:47.998Z,17.77
2019-05-12T12:24:14.639Z,17.83
2019-05-12T12:26:44.556Z,17.89
2019-05-12T12:29:13.890Z,17.81
2019-05-12T12:31:50.712Z,17.80
2019-05-12T12:34:29.348Z,17.90
2019-05-12T12:36:50.871Z,17.56
2019-05-12T12:39:20.029Z,17.60
2019-05-12T12:41:58.363Z,17.52
2019-05-12T12:44:20.187Z,17.30
2019-05-12T12:46:51.254Z,17.03
2019-05-12T12:49:20.170Z,16.91
2019-05-12T12:51:49.365Z,16.71
2019-05-12T12:54:18.619Z,16.57
2019-05-12T12:56:47.761Z,16.43
2019-05-12T12:59:16.890Z,16.29
2019-05-12T13:01:46.023Z,16.16
2019-05-12T13:04:15.344Z,16.08
2019-05-12T13:06:44.474Z,15.96
2019-05-12T13:09:23.987Z,15.86
2019-05-12T13:11:47.783Z,15.79
2019-05-12T13:14:17.195Z,15.75
2019-05-12T13:16:49.349Z,15.76
2019-05-12T13:19:17.361Z,15.72
2019-05-12T13:21:46.434Z,15.83
2019-05-12T13:24:15.567Z,16.03
2019-05-12T13:26:44.732Z,16.25
2019-05-12T13:29:13.958Z,16.27
2019-05-12T13:31:46.348Z,16.44
2019-05-12T13:34:14.361Z,16.56
2019-05-12T13:36:44.159Z,16.59
2019-05-12T13:39:16.356Z,16.79
2019-05-12T13:41:44.420Z,16.97
2019-05-12T13:44:13.881Z,16.77
2019-05-12T13:46:43.748Z,16.84
2019-05-12T13:49:14.218Z,16.83
2019-05-12T13:51:48.466Z,16.84
2019-05-12T13:54:14.518Z,16.83
2019-05-12T13:56:44.382Z,16.70
2019-05-12T13:59:20.559Z,16.54
2019-05-12T14:01:45.802Z,16.30
2019-05-12T14:04:15.045Z,16.27
2019-05-12T14:06:44.165Z,16.20
2019-05-12T14:09:13.736Z,16.08
2019-05-12T14:11:43.741Z,16.02
2019-05-12T14:14:15.325Z,15.86
2019-05-12T14:16:52.539Z,15.84
2019-05-12T14:19:14.754Z,15.78
2019-05-12T14:21:43.910Z,15.68
2019-05-12T14:24:13.979Z,15.62
2019-05-12T14:26:45.370Z,15.55
2019-05-12T14:29:14.128Z,15.50
2019-05-12T14:31:50.992Z,15.47
2019-05-12T14:34:18.905Z,15.47
2019-05-12T14:36:45.030Z,15.43
2019-05-12T14:39:14.224Z,15.44
2019-05-12T14:41:53.064Z,15.39
2019-05-12T14:44:14.230Z,15.42
2019-05-12T14:46:46.247Z,15.46
2019-05-12T14:49:14.334Z,15.62
2019-05-12T14:51:44.304Z,15.84
2019-05-12T14:54:13.977Z,15.96
2019-05-12T14:56:44.797Z,16.09
2019-05-12T14:59:14.570Z,16.16
2019-05-12T15:01:53.594Z,16.07
2019-05-12T15:04:19.519Z,16.22
2019-05-12T15:06:45.407Z,16.40
2019-05-12T15:09:19.678Z,16.47
2019-05-12T15:11:45.395Z,16.59
2019-05-12T15:14:14.510Z,16.66
2019-05-12T15:16:44.866Z,16.66
2019-05-12T15:19:14.166Z,16.73
2019-05-12T15:21:43.823Z,16.64
2019-05-12T15:24:15.499Z,16.65
2019-05-12T15:26:43.888Z,16.63
2019-05-12T15:29:19.617Z,16.56
2019-05-12T15:31:53.428Z,16.61
2019-05-12T15:34:14.767Z,16.59
2019-05-12T15:36:52.286Z,16.47
2019-05-12T15:39:14.750Z,16.46
2019-05-12T15:41:43.917Z,16.46
2019-05-12T15:44:14.501Z,15.97
2019-05-12T15:46:50.202Z,16.42
2019-05-12T15:49:19.405Z,16.40
2019-05-12T15:51:54.078Z,16.26
2019-05-12T15:54:19.559Z,16.10
2019-05-12T15:56:48.727Z,15.92
2019-05-12T15:59:17.901Z,15.92
2019-05-12T16:01:47.109Z,15.90
2019-05-12T16:04:16.316Z,15.89
2019-05-12T16:06:53.581Z,15.88
2019-05-12T16:09:16.506Z,15.84
2019-05-12T16:11:45.707Z,15.82
2019-05-12T16:14:14.872Z,15.79
2019-05-12T16:16:46.807Z,15.73
2019-05-12T16:19:14.861Z,15.70
2019-05-12T16:21:45.634Z,15.67
2019-05-12T16:24:15.683Z,15.64
2019-05-12T16:26:51.853Z,15.60
2019-05-12T16:29:15.795Z,15.55
2019-05-12T16:31:49.646Z,15.50
2019-05-12T16:34:15.971Z,15.49
2019-05-12T16:36:49.831Z,15.49
2019-05-12T16:39:15.974Z,15.48
2019-05-12T16:41:45.107Z,15.42
2019-05-12T16:44:21.449Z,15.36
2019-05-12T16:46:45.167Z,15.31
2019-05-12T16:49:14.327Z,15.26
2019-05-12T16:51:43.838Z,15.22
2019-05-12T16:54:13.146Z,15.19
2019-05-12T16:56:43.344Z,15.16
2019-05-12T16:59:16.850Z,15.12
2019-05-12T17:01:43.986Z,15.06
2019-05-12T17:04:13.525Z,14.98
2019-05-12T17:06:45.290Z,14.94
2019-05-12T17:09:13.766Z,14.91
2019-05-12T17:11:47.234Z,14.90
2019-05-12T17:14:13.843Z,14.94
2019-05-12T17:16:46.565Z,14.96
2019-05-12T17:19:15.472Z,15.00
2019-05-12T17:21:49.591Z,14.97
2019-05-12T17:24:15.662Z,14.94
2019-05-12T17:26:44.810Z,14.90
2019-05-12T17:29:14.008Z,14.85
2019-05-12T17:31:44.441Z,14.82
2019-05-12T17:34:14.322Z,14.59
2019-05-12T17:36:44.912Z,14.55
2019-05-12T17:39:14.396Z,14.49
2019-05-12T17:41:45.669Z,13.56
2019-05-12T17:44:14.490Z,14.46
2019-05-12T17:46:44.234Z,14.47
2019-05-12T17:49:17.686Z,14.47
2019-05-12T17:51:44.336Z,14.40
2019-05-12T17:54:21.692Z,14.35
2019-05-12T17:56:44.356Z,14.31
2019-05-12T17:59:14.891Z,14.22
2019-05-12T18:01:44.414Z,14.12
2019-05-12T18:04:14.062Z,14.01
2019-05-12T18:06:44.176Z,13.97
2019-05-12T18:09:15.673Z,13.90
2019-05-12T18:11:46.073Z,13.85
2019-05-12T18:14:15.792Z,13.76
2019-05-12T18:16:44.928Z,13.72
2019-05-12T18:19:17.739Z,13.64
2019-05-12T18:21:45.204Z,13.56
2019-05-12T18:24:14.423Z,13.51
2019-05-12T18:26:48.767Z,13.43
2019-05-12T18:29:14.816Z,13.36
2019-05-12T18:31:43.971Z,13.27
2019-05-12T18:34:13.902Z,13.22
2019-05-12T18:36:43.187Z,13.18
2019-05-12T18:39:15.039Z,13.11
2019-05-12T18:41:43.884Z,13.03
2019-05-12T18:44:15.924Z,12.97
2019-05-12T18:46:45.291Z,12.92
2019-05-12T18:49:16.006Z,12.86
2019-05-12T18:51:48.962Z,12.81
2019-05-12T18:54:16.323Z,12.75
2019-05-12T18:56:45.487Z,12.69
2019-05-12T18:59:16.390Z,12.62
2019-05-12T19:01:45.543Z,12.57
2019-05-12T19:04:14.681Z,12.50
2019-05-12T19:06:44.131Z,11.38
2019-05-12T19:09:13.837Z,12.37
2019-05-12T19:11:46.431Z,12.32
2019-05-12T19:14:13.908Z,12.26
2019-05-12T19:16:43.617Z,12.18
2019-05-12T19:19:16.449Z,12.13
2019-05-12T19:21:46.783Z,12.04
2019-05-12T19:24:19.736Z,11.94
2019-05-12T19:26:46.557Z,11.85
2019-05-12T19:29:15.943Z,11.81
2019-05-12T19:31:51.900Z,11.74
2019-05-12T19:34:22.538Z,11.69
2019-05-12T19:36:49.499Z,11.62
2019-05-12T19:39:17.769Z,11.57
2019-05-12T19:41:46.945Z,11.52
2019-05-12T19:44:20.045Z,11.46
2019-05-12T19:46:49.492Z,11.37
2019-05-12T19:49:20.208Z,11.33
2019-05-12T19:51:48.728Z,11.30
2019-05-12T19:54:19.439Z,11.27
2019-05-12T19:56:48.811Z,11.26
2019-05-12T19:59:17.968Z,11.19
2019-05-12T20:01:47.112Z,11.15
2019-05-12T20:04:29.746Z,11.10
2019-05-12T20:06:47.151Z,11.05
2019-05-12T20:09:16.332Z,10.98
2019-05-12T20:11:45.532Z,10.92
2019-05-12T20:14:19.733Z,10.88
2019-05-12T20:16:45.512Z,10.85
2019-05-12T20:19:14.667Z,10.81
2019-05-12T20:21:44.016Z,10.74
2019-05-12T20:24:14.356Z,10.68
2019-05-12T20:26:44.024Z,10.64
2019-05-12T20:29:13.901Z,10.60
2019-05-12T20:31:48.064Z,10.56
2019-05-12T20:34:14.031Z,10.55
2019-05-12T20:36:44.522Z,10.50
2019-05-12T20:39:17.133Z,10.45
2019-05-12T20:41:44.716Z,10.40
2019-05-12T20:44:17.336Z,10.36
2019-05-12T20:46:44.742Z,10.32
2019-05-12T20:49:14.963Z,10.27
2019-05-12T20:51:44.462Z,10.19
2019-05-12T20:54:18.114Z,10.15
2019-05-12T20:56:45.907Z,10.11
2019-05-12T20:59:21.854Z,10.08
2019-05-12T21:01:45.899Z,10.05
2019-05-12T21:04:15.008Z,9.99
2019-05-12T21:06:44.147Z,9.93
2019-05-12T21:09:14.351Z,9.90
2019-05-12T21:11:44.242Z,9.82
2019-05-12T21:14:14.606Z,8.77
2019-05-12T21:16:44.876Z,9.71
2019-05-12T21:19:14.452Z,9.65
2019-05-12T21:21:44.363Z,9.59
2019-05-12T21:24:14.133Z,9.55
2019-05-12T21:26:44.029Z,9.51
2019-05-12T21:29:13.877Z,9.43
2019-05-12T21:31:44.542Z,9.31
2019-05-12T21:34:21.068Z,9.26
2019-05-12T21:36:44.904Z,9.22
2019-05-12T21:39:14.179Z,9.15
2019-05-12T21:41:47.398Z,9.05
2019-05-12T21:44:14.295Z,8.95
2019-05-12T21:46:46.961Z,8.84
2019-05-12T21:49:15.544Z,8.74
2019-05-12T21:51:44.966Z,8.66
2019-05-12T21:54:14.114Z,8.54
2019-05-12T21:56:48.004Z,8.47
2019-05-12T21:59:15.597Z,8.42
2019-05-12T22:01:45.903Z,8.33
2019-05-12T22:04:15.392Z,8.26
2019-05-12T22:06:44.653Z,8.16
2019-05-12T22:09:14.753Z,8.10
2019-05-12T22:11:51.032Z,8.04
2019-05-12T22:14:15.434Z,7.98
2019-05-12T22:16:47.007Z,6.27
2019-05-12T22:19:16.165Z,7.82
2019-05-12T22:21:49.385Z,7.74
2019-05-12T22:24:16.116Z,7.65
2019-05-12T22:26:46.646Z,7.49
2019-05-12T22:29:15.967Z,7.45
2019-05-12T22:31:48.211Z,7.35
2019-05-12T22:34:15.984Z,7.30
2019-05-12T22:36:54.639Z,7.29
2019-05-12T22:39:16.100Z,7.31
2019-05-12T22:41:45.228Z,7.26
2019-05-12T22:44:18.345Z,7.25
2019-05-12T22:46:45.447Z,7.19
2019-05-12T22:49:16.751Z,7.12
2019-05-12T22:51:46.544Z,7.09
2019-05-12T22:54:15.828Z,7.09
2019-05-12T22:56:49.611Z,7.10
2019-05-12T22:59:15.835Z,7.09
2019-05-12T23:01:46.826Z,7.09
2019-05-12T23:04:15.829Z,7.06
2019-05-12T23:06:46.820Z,7.03
2019-05-12T23:09:19.360Z,6.97
2019-05-12T23:11:46.744Z,6.91
2019-05-12T23:14:20.557Z,6.82
2019-05-12T23:16:46.861Z,6.77
2019-05-12T23:19:15.999Z,6.75
2019-05-12T23:21:49.385Z,6.75
2019-05-12T23:24:18.163Z,6.75
2019-05-12T23:26:47.952Z,6.80
2019-05-12T23:29:20.383Z,6.83
2019-05-12T23:31:48.241Z,6.85
2019-05-12T23:34:17.422Z,6.87
2019-05-12T23:36:50.475Z,6.90
2019-05-12T23:39:17.415Z,6.91
2019-05-12T23:41:46.533Z,6.95
2019-05-12T23:44:15.661Z,6.95
2019-05-12T23:46:44.789Z,6.93
2019-05-12T23:49:14.460Z,6.92
2019-05-12T23:51:43.942Z,6.95
2019-05-12T23:54:14.385Z,6.94
2019-05-12T23:56:44.434Z,6.94
2019-05-12T23:59:13.848Z,6.92
